sensor_id;sensor_type;location;lat;lon;timestamp;pressure;altitude;pressure_sealevel;temperature
77223;BMP280;66218;48.928;9.140;2023-04-23T00:00:13;97887.84;;;15.03
77223;BMP280;66218;48.928;9.140;2023-04-23T00:02:42;97887.13;;;15.04
77223;BMP280;66218;48.928;9.140;2023-04-23T00:05:08;97894.78;;;15.08
77223;BMP280;66218;48.928;9.140;2023-04-23T00:07:34;97894.78;;;15.08
77223;BMP280;66218;48.928;9.140;2023-04-23T00:10:01;97888.53;;;15.01
77223;BMP280;66218;48.928;9.140;2023-04-23T00:12:30;97884.38;;;15.02
77223;BMP280;66218;48.928;9.140;2023-04-23T00:14:56;97890.63;;;15.03
77223;BMP280;66218;48.928;9.140;2023-04-23T00:17:21;97889.91;;;15.02
77223;BMP280;66218;48.928;9.140;2023-04-23T00:19:46;97887.16;;;15.00
77223;BMP280;66218;48.928;9.140;2023-04-23T00:22:12;97903.13;;;15.02
77223;BMP280;66218;48.928;9.140;2023-04-23T00:24:38;97903.13;;;15.02
77223;BMP280;66218;48.928;9.140;2023-04-23T00:27:04;97889.94;;;14.98
77223;BMP280;66218;48.928;9.140;2023-04-23T00:29:30;97896.19;;;14.97
77223;BMP280;66218;48.928;9.140;2023-04-23T00:31:55;97894.78;;;14.98
77223;BMP280;66218;48.928;9.140;2023-04-23T00:34:20;97906.59;;;14.98
77223;BMP280;66218;48.928;9.140;2023-04-23T00:36:46;97919.75;;;14.81
77223;BMP280;66218;48.928;9.140;2023-04-23T00:39:11;97919.75;;;14.81
77223;BMP280;66218;48.928;9.140;2023-04-23T00:41:36;97916.22;;;14.46
77223;BMP280;66218;48.928;9.140;2023-04-23T00:44:02;97916.88;;;14.37
77223;BMP280;66218;48.928;9.140;2023-04-23T00:46:28;97918.94;;;14.30
77223;BMP280;66218;48.928;9.140;2023-04-23T00:48:54;97929.25;;;14.09
77223;BMP280;66218;48.928;9.140;2023-04-23T00:51:20;97929.25;;;14.07
77223;BMP280;66218;48.928;9.140;2023-04-23T00:53:47;97945.13;;;13.95
77223;BMP280;66218;48.928;9.140;2023-04-23T00:56:13;97945.13;;;13.95
77223;BMP280;66218;48.928;9.140;2023-04-23T00:58:39;97938.16;;;13.91
77223;BMP280;66218;48.928;9.140;2023-04-23T01:01:05;97946.50;;;13.91
77223;BMP280;66218;48.928;9.140;2023-04-23T01:03:32;97945.13;;;13.95
77223;BMP280;66218;48.928;9.140;2023-04-23T01:06:00;97945.13;;;13.95
77223;BMP280;66218;48.928;9.140;2023-04-23T01:08:26;97947.19;;;13.92
77223;BMP280;66218;48.928;9.140;2023-04-23T01:10:52;97954.13;;;13.89
77223;BMP280;66218;48.928;9.140;2023-04-23T01:13:17;97948.56;;;13.91
77223;BMP280;66218;48.928;9.140;2023-04-23T01:15:43;97943.75;;;13.93
77223;BMP280;66218;48.928;9.140;2023-04-23T01:18:09;97959.66;;;13.91
77223;BMP280;66218;48.928;9.140;2023-04-23T01:20:35;97954.09;;;13.87
77223;BMP280;66218;48.928;9.140;2023-04-23T01:23:01;97955.53;;;13.90
77223;BMP280;66218;48.928;9.140;2023-04-23T01:25:27;97961.72;;;13.84
77223;BMP280;66218;48.928;9.140;2023-04-23T01:27:52;97949.19;;;13.71
77223;BMP280;66218;48.928;9.140;2023-04-23T01:30:18;97955.38;;;13.72
77223;BMP280;66218;48.928;9.140;2023-04-23T01:32:44;97953.34;;;13.78
77223;BMP280;66218;48.928;9.140;2023-04-23T01:35:09;97949.81;;;13.68
77223;BMP280;66218;48.928;9.140;2023-04-23T01:37:37;97952.56;;;13.66
77223;BMP280;66218;48.928;9.140;2023-04-23T01:40:04;97951.09;;;13.52
77223;BMP280;66218;48.928;9.140;2023-04-23T01:42:30;97960.09;;;13.53
77223;BMP280;66218;48.928;9.140;2023-04-23T01:44:55;97949.72;;;13.49
77223;BMP280;66218;48.928;9.140;2023-04-23T01:47:20;97957.38;;;13.57
77223;BMP280;66218;48.928;9.140;2023-04-23T01:49:46;97957.38;;;13.57
77223;BMP280;66218;48.928;9.140;2023-04-23T01:52:11;97963.59;;;13.55
77223;BMP280;66218;48.928;9.140;2023-04-23T01:54:37;97958.03;;;13.53
77223;BMP280;66218;48.928;9.140;2023-04-23T01:57:02;97962.91;;;13.55
77223;BMP280;66218;48.928;9.140;2023-04-23T01:59:27;97964.28;;;13.56
77223;BMP280;66218;48.928;9.140;2023-04-23T02:01:53;97965.69;;;13.59
77223;BMP280;66218;48.928;9.140;2023-04-23T02:04:19;97971.31;;;13.67
77223;BMP280;66218;48.928;9.140;2023-04-23T02:06:48;97971.31;;;13.67
77223;BMP280;66218;48.928;9.140;2023-04-23T02:09:13;97960.19;;;13.63
77223;BMP280;66218;48.928;9.140;2023-04-23T02:11:39;97969.22;;;13.68
77223;BMP280;66218;48.928;9.140;2023-04-23T02:14:05;97961.59;;;13.64
77223;BMP280;66218;48.928;9.140;2023-04-23T02:16:30;97965.72;;;13.61
77223;BMP280;66218;48.928;9.140;2023-04-23T02:18:57;97970.53;;;13.56
77223;BMP280;66218;48.928;9.140;2023-04-23T02:21:23;97982.28;;;13.53
77223;BMP280;66218;48.928;9.140;2023-04-23T02:23:49;97983.59;;;13.42
77223;BMP280;66218;48.928;9.140;2023-04-23T02:26:15;97980.84;;;13.46
77223;BMP280;66218;48.928;9.140;2023-04-23T02:28:40;97979.41;;;13.39
77223;BMP280;66218;48.928;9.140;2023-04-23T02:31:06;97980.75;;;13.36
77223;BMP280;66218;48.928;9.140;2023-04-23T02:33:31;97989.13;;;13.42
77223;BMP280;66218;48.928;9.140;2023-04-23T02:35:56;97983.63;;;13.46
77223;BMP280;66218;48.928;9.140;2023-04-23T02:38:22;97981.59;;;13.52
77223;BMP280;66218;48.928;9.140;2023-04-23T02:40:47;97987.19;;;13.58
77223;BMP280;66218;48.928;9.140;2023-04-23T02:43:12;97994.13;;;13.61
77223;BMP280;66218;48.928;9.140;2023-04-23T02:45:37;97981.00;;;13.64
77223;BMP280;66218;48.928;9.140;2023-04-23T02:48:03;97975.47;;;13.64
77223;BMP280;66218;48.928;9.140;2023-04-23T02:50:28;97969.91;;;13.64
77223;BMP280;66218;48.928;9.140;2023-04-23T02:52:53;97965.06;;;13.67
77223;BMP280;66218;48.928;9.140;2023-04-23T02:55:19;97971.31;;;13.65
77223;BMP280;66218;48.928;9.140;2023-04-23T02:57:45;97968.59;;;13.71
77223;BMP280;66218;48.928;9.140;2023-04-23T03:00:10;97964.41;;;13.74
77223;BMP280;66218;48.928;9.140;2023-04-23T03:02:36;97963.03;;;13.71
77223;BMP280;66218;48.928;9.140;2023-04-23T03:05:02;97972.03;;;13.70
77223;BMP280;66218;48.928;9.140;2023-04-23T03:07:28;97972.03;;;13.70
77223;BMP280;66218;48.928;9.140;2023-04-23T03:09:53;97958.09;;;13.66
77223;BMP280;66218;48.928;9.140;2023-04-23T03:12:18;97958.81;;;13.66
77223;BMP280;66218;48.928;9.140;2023-04-23T03:14:43;97951.19;;;13.65
77223;BMP280;66218;48.928;9.140;2023-04-23T03:17:09;97956.72;;;13.62
77223;BMP280;66218;48.928;9.140;2023-04-23T03:19:35;97953.94;;;13.58
77223;BMP280;66218;48.928;9.140;2023-04-23T03:22:00;97955.28;;;13.57
77223;BMP280;66218;48.928;9.140;2023-04-23T03:24:29;97969.84;;;13.56
77223;BMP280;66218;48.928;9.140;2023-04-23T03:26:56;97978.16;;;13.54
77223;BMP280;66218;48.928;9.140;2023-04-23T03:29:22;97978.16;;;13.54
77223;BMP280;66218;48.928;9.140;2023-04-23T03:31:47;97971.22;;;13.55
77223;BMP280;66218;48.928;9.140;2023-04-23T03:34:13;97964.97;;;13.52
77223;BMP280;66218;48.928;9.140;2023-04-23T03:36:38;97964.97;;;13.52
77223;BMP280;66218;48.928;9.140;2023-04-23T03:39:04;97966.97;;;13.46
77223;BMP280;66218;48.928;9.140;2023-04-23T03:41:29;97958.66;;;13.46
77223;BMP280;66218;48.928;9.140;2023-04-23T03:43:54;97966.31;;;13.47
77223;BMP280;66218;48.928;9.140;2023-04-23T03:46:20;97960.78;;;13.45
77223;BMP280;66218;48.928;9.140;2023-04-23T03:48:45;97963.53;;;13.47
77223;BMP280;66218;48.928;9.140;2023-04-23T03:51:10;97962.13;;;13.44
77223;BMP280;66218;48.928;9.140;2023-04-23T03:53:36;97958.69;;;13.48
77223;BMP280;66218;48.928;9.140;2023-04-23T03:56:01;97963.53;;;13.47
77223;BMP280;66218;48.928;9.140;2023-04-23T03:58:26;97955.91;;;13.46
77223;BMP280;66218;48.928;9.140;2023-04-23T04:00:51;97962.84;;;13.49
77223;BMP280;66218;48.928;9.140;2023-04-23T04:03:17;97969.03;;;13.43
77223;BMP280;66218;48.928;9.140;2023-04-23T04:05:42;97969.03;;;13.43
77223;BMP280;66218;48.928;9.140;2023-04-23T04:08:08;97961.34;;;13.33
77223;BMP280;66218;48.928;9.140;2023-04-23T04:10:33;97968.19;;;13.26
77223;BMP280;66218;48.928;9.140;2023-04-23T04:12:59;97975.81;;;13.24
77223;BMP280;66218;48.928;9.140;2023-04-23T04:15:24;97973.69;;;13.20
77223;BMP280;66218;48.928;9.140;2023-04-23T04:17:50;97966.72;;;13.13
77223;BMP280;66218;48.928;9.140;2023-04-23T04:20:15;97971.50;;;13.07
77223;BMP280;66218;48.928;9.140;2023-04-23T04:22:40;97968.63;;;12.96
77223;BMP280;66218;48.928;9.140;2023-04-23T04:25:06;97971.34;;;12.90
77223;BMP280;66218;48.928;9.140;2023-04-23T04:27:32;97975.44;;;12.85
77223;BMP280;66218;48.928;9.140;2023-04-23T04:29:58;97973.97;;;12.80
77223;BMP280;66218;48.928;9.140;2023-04-23T04:32:26;97974.63;;;12.72
77223;BMP280;66218;48.928;9.140;2023-04-23T04:34:51;97989.72;;;12.63
77223;BMP280;66218;48.928;9.140;2023-04-23T04:37:16;97985.50;;;12.58
77223;BMP280;66218;48.928;9.140;2023-04-23T04:39:42;97983.34;;;12.53
77223;BMP280;66218;48.928;9.140;2023-04-23T04:42:07;97982.66;;;12.52
77223;BMP280;66218;48.928;9.140;2023-04-23T04:44:33;97995.13;;;12.53
77223;BMP280;66218;48.928;9.140;2023-04-23T04:47:01;97992.44;;;12.59
77223;BMP280;66218;48.928;9.140;2023-04-23T04:49:26;97989.75;;;12.65
77223;BMP280;66218;48.928;9.140;2023-04-23T04:51:52;97982.88;;;12.70
77223;BMP280;66218;48.928;9.140;2023-04-23T04:54:18;97994.00;;;12.72
77223;BMP280;66218;48.928;9.140;2023-04-23T04:56:43;97985.09;;;12.84
77223;BMP280;66218;48.928;9.140;2023-04-23T04:59:09;97990.03;;;12.92
77223;BMP280;66218;48.928;9.140;2023-04-23T05:01:34;97987.34;;;12.98
77223;BMP280;66218;48.928;9.140;2023-04-23T05:04:01;97999.28;;;13.17
77223;BMP280;66218;48.928;9.140;2023-04-23T05:06:26;97988.28;;;13.25
77223;BMP280;66218;48.928;9.140;2023-04-23T05:08:52;97996.06;;;13.41
77223;BMP280;66218;48.928;9.140;2023-04-23T05:11:18;97988.53;;;13.55
77223;BMP280;66218;48.928;9.140;2023-04-23T05:13:45;97985.19;;;13.73
77223;BMP280;66218;48.928;9.140;2023-04-23T05:16:12;97984.56;;;13.81
77223;BMP280;66218;48.928;9.140;2023-04-23T05:18:38;97981.25;;;14.03
77223;BMP280;66218;48.928;9.140;2023-04-23T05:21:04;97986.81;;;14.09
77223;BMP280;66218;48.928;9.140;2023-04-23T05:23:30;97988.31;;;14.28
77223;BMP280;66218;48.928;9.140;2023-04-23T05:25:56;97992.53;;;14.41
77223;BMP280;66218;48.928;9.140;2023-04-23T05:28:22;97994.72;;;14.73
77223;BMP280;66218;48.928;9.140;2023-04-23T05:30:48;97994.81;;;15.04
77223;BMP280;66218;48.928;9.140;2023-04-23T05:33:14;97997.63;;;15.38
77223;BMP280;66218;48.928;9.140;2023-04-23T05:35:40;97996.22;;;15.52
77223;BMP280;66218;48.928;9.140;2023-04-23T05:38:05;97994.84;;;15.65
77223;BMP280;66218;48.928;9.140;2023-04-23T05:40:31;97992.03;;;15.77
77223;BMP280;66218;48.928;9.140;2023-04-23T05:42:59;97989.22;;;15.93
77223;BMP280;66218;48.928;9.140;2023-04-23T05:45:24;97995.44;;;16.06
77223;BMP280;66218;48.928;9.140;2023-04-23T05:47:50;98007.94;;;16.11
77223;BMP280;66218;48.928;9.140;2023-04-23T05:50:16;98007.25;;;16.17
77223;BMP280;66218;48.928;9.140;2023-04-23T05:52:41;98005.16;;;16.17
77223;BMP280;66218;48.928;9.140;2023-04-23T05:55:07;98003.78;;;16.12
77223;BMP280;66218;48.928;9.140;2023-04-23T05:57:34;98007.94;;;16.07
77223;BMP280;66218;48.928;9.140;2023-04-23T06:00:00;98012.16;;;15.96
77223;BMP280;66218;48.928;9.140;2023-04-23T06:02:25;98005.94;;;15.87
77223;BMP280;66218;48.928;9.140;2023-04-23T06:04:53;98014.97;;;15.94
77223;BMP280;66218;48.928;9.140;2023-04-23T06:07:18;98006.59;;;15.94
77223;BMP280;66218;48.928;9.140;2023-04-23T06:09:44;98001.72;;;15.98
77223;BMP280;66218;48.928;9.140;2023-04-23T06:12:10;98012.13;;;16.14
77223;BMP280;66218;48.928;9.140;2023-04-23T06:14:35;98015.53;;;16.35
77223;BMP280;66218;48.928;9.140;2023-04-23T06:17:00;98006.41;;;16.49
77223;BMP280;66218;48.928;9.140;2023-04-23T06:19:26;98006.31;;;16.71
77223;BMP280;66218;48.928;9.140;2023-04-23T06:21:52;98006.84;;;17.00
77223;BMP280;66218;48.928;9.140;2023-04-23T06:24:17;98002.38;;;17.40
77223;BMP280;66218;48.928;9.140;2023-04-23T06:26:43;98004.88;;;17.70
77223;BMP280;66218;48.928;9.140;2023-04-23T06:29:08;98006.94;;;17.74
77223;BMP280;66218;48.928;9.140;2023-04-23T06:31:33;98002.56;;;17.91
77223;BMP280;66218;48.928;9.140;2023-04-23T06:33:58;98004.81;;;17.76
77223;BMP280;66218;48.928;9.140;2023-04-23T06:36:24;98006.41;;;17.55
77223;BMP280;66218;48.928;9.140;2023-04-23T06:38:50;98004.47;;;17.35
77223;BMP280;66218;48.928;9.140;2023-04-23T06:41:15;97996.09;;;17.41
77223;BMP280;66218;48.928;9.140;2023-04-23T06:43:41;98000.41;;;17.24
77223;BMP280;66218;48.928;9.140;2023-04-23T06:46:06;98005.16;;;17.36
77223;BMP280;66218;48.928;9.140;2023-04-23T06:48:32;97994.00;;;17.36
77223;BMP280;66218;48.928;9.140;2023-04-23T06:50:57;98002.22;;;17.58
77223;BMP280;66218;48.928;9.140;2023-04-23T06:53:23;97992.94;;;17.78
77223;BMP280;66218;48.928;9.140;2023-04-23T06:55:51;97992.50;;;18.18
77223;BMP280;66218;48.928;9.140;2023-04-23T06:58:16;97987.88;;;18.54
77223;BMP280;66218;48.928;9.140;2023-04-23T07:00:42;97989.19;;;19.06
77223;BMP280;66218;48.928;9.140;2023-04-23T07:03:07;97978.25;;;19.33
77223;BMP280;66218;48.928;9.140;2023-04-23T07:05:33;97975.81;;;19.52
77223;BMP280;66218;48.928;9.140;2023-04-23T07:07:58;97979.31;;;19.53
77223;BMP280;66218;48.928;9.140;2023-04-23T07:10:24;97982.75;;;19.55
77223;BMP280;66218;48.928;9.140;2023-04-23T07:12:49;97982.03;;;19.57
77223;BMP280;66218;48.928;9.140;2023-04-23T07:15:14;97979.97;;;19.55
77223;BMP280;66218;48.928;9.140;2023-04-23T07:17:40;97986.81;;;19.62
77223;BMP280;66218;48.928;9.140;2023-04-23T07:20:06;97985.09;;;19.42
77223;BMP280;66218;48.928;9.140;2023-04-23T07:22:32;97977.88;;;19.14
77223;BMP280;66218;48.928;9.140;2023-04-23T07:24:58;97974.59;;;19.00
77223;BMP280;66218;48.928;9.140;2023-04-23T07:27:24;97979.16;;;18.78
77223;BMP280;66218;48.928;9.140;2023-04-23T07:29:49;97980.53;;;18.77
77223;BMP280;66218;48.928;9.140;2023-04-23T07:32:15;97983.41;;;18.71
77223;BMP280;66218;48.928;9.140;2023-04-23T07:34:40;97981.81;;;18.84
77223;BMP280;66218;48.928;9.140;2023-04-23T07:37:05;97976.06;;;18.97
77223;BMP280;66218;48.928;9.140;2023-04-23T07:39:34;97975.50;;;18.88
77223;BMP280;66218;48.928;9.140;2023-04-23T07:41:59;97966.44;;;18.88
77223;BMP280;66218;48.928;9.140;2023-04-23T07:44:26;97972.28;;;19.14
77223;BMP280;66218;48.928;9.140;2023-04-23T07:46:51;97973.09;;;19.48
77223;BMP280;66218;48.928;9.140;2023-04-23T07:49:16;97965.78;;;19.65
77223;BMP280;66218;48.928;9.140;2023-04-23T07:51:44;97961.84;;;19.87
77223;BMP280;66218;48.928;9.140;2023-04-23T07:54:13;97966.16;;;20.17
77223;BMP280;66218;48.928;9.140;2023-04-23T07:56:38;97963.56;;;20.40
77223;BMP280;66218;48.928;9.140;2023-04-23T07:59:03;97962.13;;;20.41
77223;BMP280;66218;48.928;9.140;2023-04-23T08:01:31;97952.88;;;20.77
77223;BMP280;66218;48.928;9.140;2023-04-23T08:03:56;97960.16;;;20.95
77223;BMP280;66218;48.928;9.140;2023-04-23T08:06:21;97968.41;;;21.03
77223;BMP280;66218;48.928;9.140;2023-04-23T08:08:48;97958.34;;;21.39
77223;BMP280;66218;48.928;9.140;2023-04-23T08:11:14;97956.28;;;21.38
77223;BMP280;66218;48.928;9.140;2023-04-23T08:13:40;97953.13;;;21.25
77223;BMP280;66218;48.928;9.140;2023-04-23T08:16:05;97958.75;;;20.96
77223;BMP280;66218;48.928;9.140;2023-04-23T08:18:36;97946.06;;;20.97
77223;BMP280;66218;48.928;9.140;2023-04-23T08:21:01;97942.41;;;20.76
77223;BMP280;66218;48.928;9.140;2023-04-23T08:23:26;97937.28;;;20.56
77223;BMP280;66218;48.928;9.140;2023-04-23T08:25:52;97934.50;;;20.25
77223;BMP280;66218;48.928;9.140;2023-04-23T08:28:18;97927.69;;;20.13
77223;BMP280;66218;48.928;9.140;2023-04-23T08:30:43;97927.19;;;20.05
77223;BMP280;66218;48.928;9.140;2023-04-23T08:33:09;97924.72;;;19.89
77223;BMP280;66218;48.928;9.140;2023-04-23T08:35:34;97916.25;;;19.58
77223;BMP280;66218;48.928;9.140;2023-04-23T08:38:00;97922.16;;;19.41
77223;BMP280;66218;48.928;9.140;2023-04-23T08:40:30;97923.75;;;19.30
77223;BMP280;66218;48.928;9.140;2023-04-23T08:42:57;97921.19;;;19.55
77223;BMP280;66218;48.928;9.140;2023-04-23T08:45:25;97918.88;;;20.01
77223;BMP280;66218;48.928;9.140;2023-04-23T08:48:09;97929.91;;;20.42
77223;BMP280;66218;48.928;9.140;2023-04-23T08:50:36;97931.88;;;20.76
77223;BMP280;66218;48.928;9.140;2023-04-23T08:53:05;97923.50;;;21.30
77223;BMP280;66218;48.928;9.140;2023-04-23T08:55:34;97926.41;;;21.78
77223;BMP280;66218;48.928;9.140;2023-04-23T08:58:03;97922.28;;;22.23
77223;BMP280;66218;48.928;9.140;2023-04-23T09:00:31;97922.25;;;22.45
77223;BMP280;66218;48.928;9.140;2023-04-23T09:02:57;97909.22;;;22.36
77223;BMP280;66218;48.928;9.140;2023-04-23T09:05:22;97908.44;;;22.37
77223;BMP280;66218;48.928;9.140;2023-04-23T09:07:47;97911.50;;;22.52
77223;BMP280;66218;48.928;9.140;2023-04-23T09:10:13;97910.34;;;22.66
77223;BMP280;66218;48.928;9.140;2023-04-23T09:12:42;97913.03;;;22.70
77223;BMP280;66218;48.928;9.140;2023-04-23T09:15:09;97908.78;;;22.71
77223;BMP280;66218;48.928;9.140;2023-04-23T09:17:37;97898.13;;;23.15
77223;BMP280;66218;48.928;9.140;2023-04-23T09:20:04;97901.34;;;23.24
77223;BMP280;66218;48.928;9.140;2023-04-23T09:22:46;97895.00;;;23.04
77223;BMP280;66218;48.928;9.140;2023-04-23T09:25:14;97889.91;;;23.09
77223;BMP280;66218;48.928;9.140;2023-04-23T09:27:40;97883.56;;;23.48
77223;BMP280;66218;48.928;9.140;2023-04-23T09:30:07;97881.59;;;23.82
77223;BMP280;66218;48.928;9.140;2023-04-23T09:32:35;97887.28;;;24.34
77223;BMP280;66218;48.928;9.140;2023-04-23T09:35:02;97877.78;;;24.25
77223;BMP280;66218;48.928;9.140;2023-04-23T09:37:28;97883.59;;;24.21
77223;BMP280;66218;48.928;9.140;2023-04-23T09:39:57;97877.63;;;23.94
77223;BMP280;66218;48.928;9.140;2023-04-23T09:42:23;97876.13;;;24.13
77223;BMP280;66218;48.928;9.140;2023-04-23T09:44:59;97875.69;;;24.42
77223;BMP280;66218;48.928;9.140;2023-04-23T09:47:25;97867.91;;;24.93
77223;BMP280;66218;48.928;9.140;2023-04-23T09:49:50;97862.69;;;24.83
77223;BMP280;66218;48.928;9.140;2023-04-23T09:52:16;97851.56;;;24.62
77223;BMP280;66218;48.928;9.140;2023-04-23T09:54:42;97847.81;;;24.68
77223;BMP280;66218;48.928;9.140;2023-04-23T09:57:10;97859.50;;;24.74
77223;BMP280;66218;48.928;9.140;2023-04-23T09:59:35;97852.91;;;24.97
77223;BMP280;66218;48.928;9.140;2023-04-23T10:02:04;97848.31;;;24.56
77223;BMP280;66218;48.928;9.140;2023-04-23T10:04:30;97850.75;;;24.13
77223;BMP280;66218;48.928;9.140;2023-04-23T10:06:58;97841.13;;;24.25
77223;BMP280;66218;48.928;9.140;2023-04-23T10:09:24;97842.25;;;24.66
77223;BMP280;66218;48.928;9.140;2023-04-23T10:11:51;97838.69;;;24.67
77223;BMP280;66218;48.928;9.140;2023-04-23T10:14:17;97840.19;;;24.31
77223;BMP280;66218;48.928;9.140;2023-04-23T10:16:45;97831.75;;;24.47
77223;BMP280;66218;48.928;9.140;2023-04-23T10:19:13;97840.66;;;24.54
77223;BMP280;66218;48.928;9.140;2023-04-23T10:21:40;97830.97;;;24.49
77223;BMP280;66218;48.928;9.140;2023-04-23T10:24:05;97832.22;;;25.02
77223;BMP280;66218;48.928;9.140;2023-04-23T10:26:33;97825.13;;;25.49
77223;BMP280;66218;48.928;9.140;2023-04-23T10:28:59;97824.19;;;25.24
77223;BMP280;66218;48.928;9.140;2023-04-23T10:31:25;97821.09;;;24.98
77223;BMP280;66218;48.928;9.140;2023-04-23T10:33:52;97815.84;;;24.40
77223;BMP280;66218;48.928;9.140;2023-04-23T10:36:19;97815.59;;;24.29
77223;BMP280;66218;48.928;9.140;2023-04-23T10:38:45;97808.63;;;23.93
77223;BMP280;66218;48.928;9.140;2023-04-23T10:41:11;97801.34;;;23.62
77223;BMP280;66218;48.928;9.140;2023-04-23T10:43:40;97798.63;;;23.41
77223;BMP280;66218;48.928;9.140;2023-04-23T10:46:32;97796.81;;;23.34
77223;BMP280;66218;48.928;9.140;2023-04-23T10:49:24;97794.09;;;23.32
77223;BMP280;66218;48.928;9.140;2023-04-23T10:54:30;97792.84;;;23.45
77223;BMP280;66218;48.928;9.140;2023-04-23T10:57:13;97787.91;;;23.65
77223;BMP280;66218;48.928;9.140;2023-04-23T10:59:50;97778.44;;;23.72
77223;BMP280;66218;48.928;9.140;2023-04-23T11:02:16;97775.34;;;24.14
77223;BMP280;66218;48.928;9.140;2023-04-23T11:04:51;97756.78;;;24.02
77223;BMP280;66218;48.928;9.140;2023-04-23T11:07:18;97768.69;;;24.22
77223;BMP280;66218;48.928;9.140;2023-04-23T11:09:47;97760.34;;;24.68
77223;BMP280;66218;48.928;9.140;2023-04-23T11:14:51;97772.34;;;25.00
77223;BMP280;66218;48.928;9.140;2023-04-23T11:17:58;97764.84;;;25.09
77223;BMP280;66218;48.928;9.140;2023-04-23T11:22:48;97762.00;;;26.26
77223;BMP280;66218;48.928;9.140;2023-04-23T11:25:14;97755.50;;;26.83
77223;BMP280;66218;48.928;9.140;2023-04-23T11:27:44;97741.38;;;26.95
77223;BMP280;66218;48.928;9.140;2023-04-23T11:32:36;97739.56;;;27.15
77223;BMP280;66218;48.928;9.140;2023-04-23T11:35:01;97742.41;;;27.28
77223;BMP280;66218;48.928;9.140;2023-04-23T11:37:29;97746.38;;;27.20
77223;BMP280;66218;48.928;9.140;2023-04-23T11:39:54;97735.50;;;27.12
77223;BMP280;66218;48.928;9.140;2023-04-23T11:42:20;97730.94;;;26.92
77223;BMP280;66218;48.928;9.140;2023-04-23T11:44:46;97732.63;;;26.74
77223;BMP280;66218;48.928;9.140;2023-04-23T11:47:14;97722.66;;;26.75
77223;BMP280;66218;48.928;9.140;2023-04-23T11:49:42;97724.38;;;26.95
77223;BMP280;66218;48.928;9.140;2023-04-23T11:52:08;97711.59;;;27.22
77223;BMP280;66218;48.928;9.140;2023-04-23T11:54:34;97707.03;;;27.52
77223;BMP280;66218;48.928;9.140;2023-04-23T11:56:59;97695.72;;;27.88
77223;BMP280;66218;48.928;9.140;2023-04-23T11:59:26;97692.34;;;28.09
77223;BMP280;66218;48.928;9.140;2023-04-23T12:01:57;97691.31;;;28.15
77223;BMP280;66218;48.928;9.140;2023-04-23T12:04:28;97687.31;;;27.86
77223;BMP280;66218;48.928;9.140;2023-04-23T12:06:55;97682.81;;;28.15
77223;BMP280;66218;48.928;9.140;2023-04-23T12:09:23;97684.03;;;28.18
77223;BMP280;66218;48.928;9.140;2023-04-23T12:11:49;97674.16;;;28.17
77223;BMP280;66218;48.928;9.140;2023-04-23T12:14:16;97672.50;;;28.09
77223;BMP280;66218;48.928;9.140;2023-04-23T12:16:44;97676.28;;;27.69
77223;BMP280;66218;48.928;9.140;2023-04-23T12:21:50;97655.84;;;27.67
77223;BMP280;66218;48.928;9.140;2023-04-23T12:24:20;97653.13;;;27.78
77223;BMP280;66218;48.928;9.140;2023-04-23T12:26:51;97652.66;;;27.73
77223;BMP280;66218;48.928;9.140;2023-04-23T12:29:20;97645.44;;;27.63
77223;BMP280;66218;48.928;9.140;2023-04-23T12:31:46;97644.50;;;27.67
77223;BMP280;66218;48.928;9.140;2023-04-23T12:34:13;97641.63;;;27.56
77223;BMP280;66218;48.928;9.140;2023-04-23T12:36:53;97636.41;;;27.48
77223;BMP280;66218;48.928;9.140;2023-04-23T12:39:26;97630.34;;;27.31
77223;BMP280;66218;48.928;9.140;2023-04-23T12:41:53;97630.25;;;27.20
77223;BMP280;66218;48.928;9.140;2023-04-23T12:44:20;97622.53;;;26.55
77223;BMP280;66218;48.928;9.140;2023-04-23T12:46:58;97625.72;;;26.09
77223;BMP280;66218;48.928;9.140;2023-04-23T12:49:25;97613.78;;;25.94
77223;BMP280;66218;48.928;9.140;2023-04-23T12:51:58;97604.88;;;26.02
77223;BMP280;66218;48.928;9.140;2023-04-23T12:54:27;97605.34;;;25.79
77223;BMP280;66218;48.928;9.140;2023-04-23T12:56:54;97599.16;;;26.30
77223;BMP280;66218;48.928;9.140;2023-04-23T12:59:20;97591.41;;;26.30
77223;BMP280;66218;48.928;9.140;2023-04-23T13:01:45;97587.56;;;26.48
77223;BMP280;66218;48.928;9.140;2023-04-23T13:04:11;97577.47;;;26.39
77223;BMP280;66218;48.928;9.140;2023-04-23T13:06:38;97574.28;;;26.19
77223;BMP280;66218;48.928;9.140;2023-04-23T13:09:03;97574.38;;;25.77
77223;BMP280;66218;48.928;9.140;2023-04-23T13:11:30;97567.97;;;25.79
77223;BMP280;66218;48.928;9.140;2023-04-23T13:13:56;97565.59;;;25.83
77223;BMP280;66218;48.928;9.140;2023-04-23T13:16:22;97571.03;;;26.53
77223;BMP280;66218;48.928;9.140;2023-04-23T13:18:47;97563.09;;;27.06
77223;BMP280;66218;48.928;9.140;2023-04-23T13:21:15;97564.34;;;26.96
77223;BMP280;66218;48.928;9.140;2023-04-23T13:23:41;97547.38;;;26.71
77223;BMP280;66218;48.928;9.140;2023-04-23T13:26:06;97551.34;;;26.38
77223;BMP280;66218;48.928;9.140;2023-04-23T13:28:32;97550.50;;;26.02
77223;BMP280;66218;48.928;9.140;2023-04-23T13:30:58;97544.88;;;26.27
77223;BMP280;66218;48.928;9.140;2023-04-23T13:33:23;97541.84;;;26.31
77223;BMP280;66218;48.928;9.140;2023-04-23T13:35:48;97532.78;;;26.67
77223;BMP280;66218;48.928;9.140;2023-04-23T13:38:14;97525.47;;;27.08
77223;BMP280;66218;48.928;9.140;2023-04-23T13:40:39;97520.31;;;27.23
77223;BMP280;66218;48.928;9.140;2023-04-23T13:43:05;97519.72;;;27.33
77223;BMP280;66218;48.928;9.140;2023-04-23T13:45:30;97509.56;;;27.49
77223;BMP280;66218;48.928;9.140;2023-04-23T13:47:55;97512.09;;;27.65
77223;BMP280;66218;48.928;9.140;2023-04-23T13:50:21;97507.22;;;27.87
77223;BMP280;66218;48.928;9.140;2023-04-23T13:52:46;97498.94;;;27.73
77223;BMP280;66218;48.928;9.140;2023-04-23T13:55:12;97493.00;;;27.77
77223;BMP280;66218;48.928;9.140;2023-04-23T13:57:37;97494.91;;;27.57
77223;BMP280;66218;48.928;9.140;2023-04-23T14:00:04;97487.28;;;27.66
77223;BMP280;66218;48.928;9.140;2023-04-23T14:02:29;97476.16;;;27.62
77223;BMP280;66218;48.928;9.140;2023-04-23T14:04:55;97476.84;;;27.62
77223;BMP280;66218;48.928;9.140;2023-04-23T14:07:21;97480.94;;;27.99
77223;BMP280;66218;48.928;9.140;2023-04-23T14:09:46;97465.72;;;28.26
77223;BMP280;66218;48.928;9.140;2023-04-23T14:12:11;97459.81;;;28.41
77223;BMP280;66218;48.928;9.140;2023-04-23T14:14:37;97452.78;;;28.51
77223;BMP280;66218;48.928;9.140;2023-04-23T14:17:02;97458.31;;;28.31